Time;durP1;ratioP1;P1;durP2;ratioP2;P2;SDS_P1;SDS_P2;PMS_P1;PMS_P2;Temp;Humidity;BMP_temperature;BMP_pressure;BME280_temperature;BME280_humidity;BME280_pressure;Samples;Min_cycle;Max_cycle;Signal;HPM_P1;HPM_P2
2022/05/18 00:00:44;;;;;;;4.37;3.60;;;14.50;99.90;;;;;;5112293;28;20556;-73
2022/05/18 00:03:13;;;;;;;3.80;3.00;;;14.50;99.90;;;;;;5112235;28;20484;-73
2022/05/18 00:05:42;;;;;;;4.00;3.20;;;14.40;99.90;;;;;;5112349;28;20449;-73
2022/05/18 00:08:10;;;;;;;4.03;3.53;;;14.40;99.90;;;;;;5111647;28;20484;-73
2022/05/18 00:10:39;;;;;;;4.73;3.93;;;14.40;99.90;;;;;;5112301;28;20460;-73
2022/05/18 00:13:07;;;;;;;4.60;3.50;;;14.40;99.90;;;;;;5111936;28;20484;-73
2022/05/18 00:15:34;;;;;;;6.13;4.30;;;14.40;99.90;;;;;;5112112;28;20449;-73
2022/05/18 00:18:01;;;;;;;6.87;4.13;;;14.40;99.90;;;;;;5111110;28;20451;-73
2022/05/18 00:20:29;;;;;;;3.60;3.23;;;14.30;99.90;;;;;;5111973;28;20464;-73
2022/05/18 00:22:58;;;;;;;3.80;3.40;;;14.30;99.90;;;;;;5111638;28;20484;-73
2022/05/18 00:25:27;;;;;;;4.20;3.80;;;14.20;99.90;;;;;;5111907;28;20460;-73
2022/05/18 00:27:54;;;;;;;5.03;3.57;;;14.20;99.90;;;;;;5111466;28;20480;-73
2022/05/18 00:30:23;;;;;;;4.30;3.60;;;14.20;99.90;;;;;;5111455;28;20831;-73
2022/05/18 00:32:50;;;;;;;6.00;4.00;;;14.10;99.90;;;;;;5111341;28;20476;-73
2022/05/18 00:35:18;;;;;;;5.10;3.67;;;14.10;99.90;;;;;;5111647;28;20449;-73
2022/05/18 00:37:46;;;;;;;5.20;3.77;;;14.10;99.90;;;;;;5111360;28;20457;-73
2022/05/18 00:40:20;;;;;;;3.73;3.43;;;14.10;99.90;;;;;;5111239;28;20461;-73
2022/05/18 00:42:47;;;;;;;5.03;3.80;;;14.00;99.90;;;;;;5111362;28;20484;-73
2022/05/18 00:45:15;;;;;;;4.27;3.87;;;13.90;99.90;;;;;;5111403;28;20985;-73
2022/05/18 00:47:42;;;;;;;3.77;3.40;;;13.90;99.90;;;;;;5111323;28;20480;-73
2022/05/18 00:50:14;;;;;;;4.40;4.00;;;13.90;99.90;;;;;;5111030;28;20457;-73
2022/05/18 00:52:45;;;;;;;4.10;3.57;;;13.90;99.90;;;;;;5111111;28;20881;-73
2022/05/18 00:55:17;;;;;;;4.83;3.70;;;13.90;99.90;;;;;;5111458;28;20461;-73
2022/05/18 00:57:51;;;;;;;5.60;4.07;;;13.90;99.90;;;;;;5111140;28;20456;-73
2022/05/18 01:00:20;;;;;;;3.90;3.50;;;13.90;99.90;;;;;;5110997;28;20463;-73
2022/05/18 01:02:53;;;;;;;4.10;3.70;;;13.80;99.90;;;;;;5110799;28;20558;-73
2022/05/18 01:05:24;;;;;;;5.10;3.87;;;13.80;99.90;;;;;;5111039;28;20500;-73
2022/05/18 01:07:54;;;;;;;3.93;3.53;;;13.70;99.90;;;;;;5110844;28;20491;-75
2022/05/18 01:10:23;;;;;;;4.30;3.40;;;13.70;99.90;;;;;;5110717;28;20457;-73
2022/05/18 01:12:50;;;;;;;4.03;3.63;;;13.70;99.90;;;;;;5110768;28;20485;-75
2022/05/18 01:15:19;;;;;;;4.40;3.73;;;13.70;99.90;;;;;;5110496;28;20456;-76
2022/05/18 01:17:56;;;;;;;6.47;3.73;;;13.60;99.90;;;;;;5110793;28;20453;-73
2022/05/18 01:20:25;;;;;;;4.83;3.83;;;13.60;99.90;;;;;;5110724;28;20460;-73
2022/05/18 01:23:02;;;;;;;4.37;3.77;;;13.60;99.90;;;;;;5110827;28;20999;-73
2022/05/18 01:25:44;;;;;;;4.47;4.03;;;13.50;99.90;;;;;;5110901;28;20456;-73
2022/05/18 01:28:13;;;;;;;4.30;3.90;;;13.50;99.90;;;;;;5110228;28;20999;-73
2022/05/18 01:30:48;;;;;;;7.70;4.33;;;13.50;99.90;;;;;;5110766;28;20514;-73
2022/05/18 01:33:17;;;;;;;5.63;4.53;;;13.50;99.90;;;;;;5110952;28;20886;-73
2022/05/18 01:35:47;;;;;;;5.37;4.00;;;13.40;99.90;;;;;;5110647;28;20464;-73
2022/05/18 01:38:14;;;;;;;8.10;3.53;;;13.40;99.90;;;;;;5110784;28;20456;-73
2022/05/18 01:40:51;;;;;;;4.20;3.80;;;13.40;99.90;;;;;;5110763;28;20948;-73
2022/05/18 01:43:24;;;;;;;5.40;4.23;;;13.40;99.90;;;;;;5111147;28;20488;-73
2022/05/18 01:45:51;;;;;;;4.73;4.20;;;13.40;99.90;;;;;;5110530;28;20452;-73
2022/05/18 01:48:21;;;;;;;5.60;4.30;;;13.30;99.90;;;;;;5110083;28;20533;-74
2022/05/18 01:50:49;;;;;;;6.23;3.70;;;13.30;99.90;;;;;;5110864;28;20488;-74
2022/05/18 01:53:16;;;;;;;4.60;3.60;;;13.30;99.90;;;;;;5110618;28;20476;-73
2022/05/18 01:55:43;;;;;;;4.57;3.80;;;13.30;99.90;;;;;;5110736;28;20457;-74
2022/05/18 01:58:11;;;;;;;6.23;3.70;;;13.20;99.90;;;;;;5110010;28;20548;-73
2022/05/18 02:00:40;;;;;;;5.07;4.30;;;13.20;99.90;;;;;;5110663;28;20954;-73
2022/05/18 02:03:07;;;;;;;4.23;3.60;;;13.20;99.90;;;;;;5110274;28;21353;-74
2022/05/18 02:05:34;;;;;;;4.10;3.70;;;13.20;99.90;;;;;;5110519;28;20471;-74
2022/05/18 02:08:01;;;;;;;8.80;4.20;;;13.20;99.90;;;;;;5109772;28;20485;-73
2022/05/18 02:10:28;;;;;;;4.73;4.30;;;13.20;99.90;;;;;;5110903;28;20463;-74
2022/05/18 02:12:54;;;;;;;5.10;3.90;;;13.20;99.90;;;;;;5110420;28;20481;-73
2022/05/18 02:15:23;;;;;;;4.90;3.80;;;13.20;99.90;;;;;;5110379;28;20457;-74
2022/05/18 02:17:51;;;;;;;5.30;4.40;;;13.10;99.90;;;;;;5110343;28;20555;-74
2022/05/18 02:20:19;;;;;;;4.90;3.83;;;13.10;99.90;;;;;;5110062;28;20460;-73
2022/05/18 02:22:46;;;;;;;4.43;3.90;;;13.10;99.90;;;;;;5110307;28;20483;-74
2022/05/18 02:25:14;;;;;;;4.10;3.70;;;13.10;99.90;;;;;;5110493;28;20460;-74
2022/05/18 02:27:40;;;;;;;5.90;4.10;;;13.00;99.90;;;;;;5113796;28;20933;-74
2022/05/18 02:30:09;;;;;;;5.70;3.93;;;13.00;99.90;;;;;;5113309;28;20788;-74
2022/05/18 02:32:36;;;;;;;5.57;3.80;;;13.00;99.90;;;;;;5113917;28;20477;-74
2022/05/18 02:35:05;;;;;;;5.80;4.00;;;13.00;99.90;;;;;;5113787;28;20457;-73
2022/05/18 02:37:32;;;;;;;4.13;3.73;;;12.90;99.90;;;;;;5113827;28;20982;-74
2022/05/18 02:39:59;;;;;;;4.10;3.70;;;12.90;99.90;;;;;;5113122;28;20483;-73
2022/05/18 02:42:26;;;;;;;4.60;3.40;;;12.90;99.90;;;;;;5113891;28;20476;-74
2022/05/18 02:44:53;;;;;;;3.60;3.30;;;12.90;99.90;;;;;;5113518;28;20457;-73
2022/05/18 02:47:20;;;;;;;5.20;3.97;;;12.90;99.90;;;;;;5113755;28;20460;-74
2022/05/18 02:49:47;;;;;;;4.30;4.00;;;12.90;99.90;;;;;;5112977;28;20480;-73
2022/05/18 02:52:15;;;;;;;6.53;4.00;;;12.90;99.90;;;;;;5113668;28;20484;-74
2022/05/18 02:57:26;;;;;;;3.60;3.30;;;12.80;99.90;;;;;;5113631;28;20440;-73
2022/05/18 02:59:53;;;;;;;6.77;4.23;;;12.80;99.90;;;;;;5112896;28;20822;-73
2022/05/18 03:02:19;;;;;;;4.27;3.87;;;12.80;99.90;;;;;;5113545;28;20494;-73
2022/05/18 03:04:46;;;;;;;4.33;3.93;;;12.70;99.90;;;;;;5113123;28;20469;-73
2022/05/18 03:07:14;;;;;;;4.83;3.80;;;12.70;99.90;;;;;;5113432;28;20464;-73
2022/05/18 03:09:41;;;;;;;4.03;3.73;;;12.70;99.90;;;;;;5112458;28;20998;-73
2022/05/18 03:12:09;;;;;;;5.30;4.07;;;12.70;99.90;;;;;;5113248;28;20865;-73
2022/05/18 03:14:36;;;;;;;6.00;3.80;;;12.70;99.90;;;;;;5113502;28;20464;-74
2022/05/18 03:17:03;;;;;;;4.30;3.73;;;12.70;99.90;;;;;;5113226;28;21159;-73
2022/05/18 03:19:30;;;;;;;4.90;4.40;;;12.70;99.90;;;;;;5112708;28;20456;-73
2022/05/18 03:24:42;;;;;;;4.50;4.10;;;12.70;99.90;;;;;;5113845;28;20950;-73
2022/05/18 03:27:11;;;;;;;5.00;4.50;;;12.70;99.90;;;;;;5113159;28;20460;-72
2022/05/18 03:29:37;;;;;;;5.47;4.53;;;12.60;99.90;;;;;;5112840;28;20480;-73
2022/05/18 03:32:05;;;;;;;7.27;4.17;;;12.60;99.90;;;;;;5112392;28;21011;-72
2022/05/18 03:34:33;;;;;;;5.30;4.43;;;12.60;99.90;;;;;;5112400;28;20865;-72
2022/05/18 03:37:00;;;;;;;4.60;4.03;;;12.60;99.90;;;;;;5105760;28;20560;-73
2022/05/18 03:39:26;;;;;;;6.07;4.73;;;12.60;99.90;;;;;;5092168;28;20456;-73
2022/05/18 03:41:55;;;;;;;5.27;4.57;;;12.50;99.90;;;;;;5091538;28;20477;-73
2022/05/18 03:44:22;;;;;;;4.13;3.70;;;12.60;99.90;;;;;;5092707;28;20458;-73
2022/05/18 03:46:49;;;;;;;5.27;4.27;;;12.60;99.90;;;;;;5092062;28;20458;-73
2022/05/18 03:49:15;;;;;;;5.50;4.50;;;12.50;99.90;;;;;;5091723;28;20481;-73
2022/05/18 03:51:42;;;;;;;4.10;3.70;;;12.50;99.90;;;;;;5091907;28;20482;-73
2022/05/18 03:54:10;;;;;;;4.30;3.90;;;12.50;99.90;;;;;;5092236;28;20805;-73
2022/05/18 03:56:36;;;;;;;6.90;4.50;;;12.50;99.90;;;;;;5092335;28;20253;-73
2022/05/18 03:59:05;;;;;;;5.30;4.73;;;12.50;99.90;;;;;;5091562;28;20832;-73
2022/05/18 04:01:31;;;;;;;7.10;5.30;;;12.50;99.90;;;;;;5091973;28;20485;-73
2022/05/18 04:03:58;;;;;;;4.70;3.77;;;12.50;99.90;;;;;;5091839;28;20984;-73
2022/05/18 04:06:25;;;;;;;5.97;4.97;;;12.50;99.90;;;;;;5092678;28;20464;-74
2022/05/18 04:08:52;;;;;;;5.40;4.63;;;12.50;99.90;;;;;;5092100;28;20482;-73
2022/05/18 04:11:19;;;;;;;5.00;4.50;;;12.50;99.90;;;;;;5091531;28;20458;-73
2022/05/18 04:13:46;;;;;;;5.03;4.03;;;12.50;99.90;;;;;;5091121;28;20827;-72
2022/05/18 04:16:14;;;;;;;5.83;4.47;;;12.50;99.90;;;;;;5091037;28;20490;-73
2022/05/18 04:18:40;;;;;;;4.57;4.17;;;12.60;99.90;;;;;;5090671;28;20450;-73
2022/05/18 04:21:07;;;;;;;4.70;4.30;;;12.60;99.90;;;;;;5093863;28;20469;-73
2022/05/18 04:23:37;;;;;;;4.80;4.40;;;12.60;99.90;;;;;;5111335;28;20459;-73
2022/05/18 04:26:03;;;;;;;4.80;4.40;;;12.60;99.90;;;;;;5111230;28;20456;-73
2022/05/18 04:28:32;;;;;;;5.03;4.47;;;12.70;99.90;;;;;;5111115;28;20480;-75
2022/05/18 04:31:00;;;;;;;4.67;4.27;;;12.70;99.90;;;;;;5111799;28;20555;-75
2022/05/18 04:33:29;;;;;;;5.87;4.00;;;12.80;99.90;;;;;;5112163;28;20526;-73
2022/05/18 04:35:56;;;;;;;5.47;4.40;;;12.80;99.90;;;;;;5111794;28;20457;-73
2022/05/18 04:38:23;;;;;;;6.30;4.20;;;12.90;99.90;;;;;;5111231;28;20475;-73
2022/05/18 04:40:50;;;;;;;5.37;3.80;;;12.90;99.90;;;;;;5111648;28;20453;-73
2022/05/18 04:43:18;;;;;;;5.40;4.80;;;13.00;99.90;;;;;;5111729;28;20476;-73
2022/05/18 04:45:45;;;;;;;6.80;5.00;;;13.10;99.90;;;;;;5111449;28;20465;-74
2022/05/18 04:48:15;;;;;;;5.33;4.67;;;13.10;99.90;;;;;;5110747;28;20828;-73
2022/05/18 04:50:44;;;;;;;4.70;4.30;;;13.20;99.90;;;;;;5111423;28;20461;-73
2022/05/18 04:53:12;;;;;;;7.37;4.97;;;13.30;99.90;;;;;;5111696;28;20877;-73
2022/05/18 04:55:39;;;;;;;5.10;4.60;;;13.30;99.90;;;;;;5111515;28;20461;-73
2022/05/18 04:58:06;;;;;;;5.43;4.80;;;13.40;99.90;;;;;;5110922;28;20465;-75
2022/05/18 05:00:33;;;;;;;5.03;3.90;;;13.50;99.90;;;;;;5111564;28;20460;-73
2022/05/18 05:09:29;;;;;;;6.80;4.73;;;13.80;99.90;;;;;;5065765;22;20480;-73
2022/05/18 05:11:56;;;;;;;6.20;4.10;;;13.90;99.90;;;;;;5088008;28;20473;-74
2022/05/18 05:14:23;;;;;;;4.80;4.17;;;14.00;99.90;;;;;;5070473;28;20454;-73
2022/05/18 05:16:51;;;;;;;4.33;4.00;;;14.10;99.90;;;;;;5070576;28;21016;-73
2022/05/18 05:19:18;;;;;;;4.33;3.97;;;14.30;99.90;;;;;;5069861;28;20446;-74
2022/05/18 05:21:45;;;;;;;4.37;3.97;;;14.40;99.90;;;;;;5070563;28;20482;-74
2022/05/18 05:24:13;;;;;;;4.90;4.40;;;14.50;99.90;;;;;;5070348;28;20461;-74
2022/05/18 05:26:41;;;;;;;4.50;4.10;;;14.60;99.90;;;;;;5070486;28;20450;-74
2022/05/18 05:29:08;;;;;;;5.67;4.67;;;14.80;99.90;;;;;;5069752;28;20516;-74
2022/05/18 05:31:36;;;;;;;4.63;4.20;;;14.90;99.90;;;;;;5070430;28;21001;-74
2022/05/18 05:34:02;;;;;;;4.60;4.20;;;15.10;99.90;;;;;;5070459;28;20563;-74
2022/05/18 05:36:30;;;;;;;4.50;4.03;;;15.20;99.90;;;;;;5070433;28;20458;-74
2022/05/18 05:38:57;;;;;;;4.87;3.53;;;15.30;99.90;;;;;;5070308;28;20461;-74
2022/05/18 05:41:24;;;;;;;4.07;3.67;;;15.40;99.90;;;;;;5070298;28;20553;-74
2022/05/18 05:43:53;;;;;;;3.73;3.30;;;15.50;99.90;;;;;;5070610;28;20458;-74
2022/05/18 05:46:20;;;;;;;3.67;3.37;;;15.70;99.90;;;;;;5070310;28;20463;-74
2022/05/18 05:48:47;;;;;;;3.40;3.10;;;15.90;99.90;;;;;;5070425;28;20458;-74
2022/05/18 05:51:15;;;;;;;4.37;3.97;;;16.10;99.90;;;;;;5070138;28;20462;-73
2022/05/18 05:53:43;;;;;;;7.23;3.83;;;16.20;99.90;;;;;;5070529;28;20888;-74
2022/05/18 05:56:11;;;;;;;5.60;3.90;;;16.50;99.90;;;;;;5069947;28;20462;-73
2022/05/18 05:58:39;;;;;;;5.17;3.80;;;16.60;99.90;;;;;;5069370;28;20630;-74
2022/05/18 06:01:09;;;;;;;5.00;4.33;;;16.80;99.90;;;;;;5072927;28;21094;-74
2022/05/18 06:03:36;;;;;;;5.67;3.70;;;17.00;99.90;;;;;;5073937;28;20462;-74
2022/05/18 06:06:04;;;;;;;4.50;3.60;;;17.20;99.90;;;;;;5074016;28;20469;-73
2022/05/18 06:08:31;;;;;;;5.60;3.40;;;17.30;99.90;;;;;;5073849;28;20462;-73
2022/05/18 06:10:59;;;;;;;3.57;3.20;;;17.40;99.90;;;;;;5073841;28;20489;-73
2022/05/18 06:13:27;;;;;;;4.40;3.43;;;17.50;99.90;;;;;;5074030;28;20482;-73
2022/05/18 06:15:54;;;;;;;6.33;3.77;;;17.70;99.90;;;;;;5071347;28;20880;-73
2022/05/18 06:18:22;;;;;;;7.83;3.50;;;17.80;99.90;;;;;;5071460;28;20867;-74
2022/05/18 06:20:49;;;;;;;5.13;3.70;;;17.90;99.90;;;;;;5072921;28;20469;-74
2022/05/18 06:23:17;;;;;;;4.20;3.73;;;18.00;99.90;;;;;;5072065;28;21086;-74
2022/05/18 06:25:44;;;;;;;4.50;4.10;;;18.00;99.90;;;;;;5072944;28;20467;-74
2022/05/18 06:28:11;;;;;;;3.80;3.50;;;18.10;99.90;;;;;;5071989;28;20519;-73
2022/05/18 06:30:38;;;;;;;3.73;3.43;;;18.10;99.90;;;;;;5072412;28;20490;-73
2022/05/18 06:33:05;;;;;;;5.50;3.90;;;18.20;99.90;;;;;;5072270;28;20485;-74
2022/05/18 06:35:33;;;;;;;4.20;3.37;;;18.20;99.90;;;;;;5072398;28;20459;-74
2022/05/18 06:38:01;;;;;;;4.77;3.80;;;18.30;99.90;;;;;;5071539;28;20464;-73
2022/05/18 06:43:08;;;;;;;4.23;3.50;;;18.50;99.90;;;;;;5071863;28;20498;-74
2022/05/18 06:45:35;;;;;;;4.47;3.70;;;18.60;99.90;;;;;;5071724;28;20848;-74
2022/05/18 06:48:02;;;;;;;4.03;3.60;;;18.70;99.90;;;;;;5071685;28;20455;-74
2022/05/18 06:50:29;;;;;;;5.93;3.70;;;18.80;99.90;;;;;;5072337;28;21023;-73
2022/05/18 06:52:57;;;;;;;4.33;3.67;;;18.80;99.90;;;;;;5072151;28;20846;-73
2022/05/18 06:55:24;;;;;;;4.57;3.13;;;18.90;99.90;;;;;;5072058;28;20458;-74
2022/05/18 06:57:52;;;;;;;3.80;3.30;;;19.00;99.90;;;;;;5070147;28;20455;-74
2022/05/18 07:00:20;;;;;;;6.93;4.00;;;19.10;99.90;;;;;;5071629;28;21040;-73
2022/05/18 07:02:50;;;;;;;3.63;3.33;;;19.20;99.90;;;;;;5072464;28;20479;-74
2022/05/18 07:05:18;;;;;;;3.93;3.27;;;19.20;99.90;;;;;;5071999;28;20463;-73
2022/05/18 07:07:44;;;;;;;4.10;3.80;;;19.30;99.90;;;;;;5071849;28;20549;-73
2022/05/18 07:10:13;;;;;;;3.43;3.13;;;19.40;99.90;;;;;;5070952;28;20493;-73
2022/05/18 07:12:39;;;;;;;5.30;3.13;;;19.40;99.90;;;;;;5071552;28;20478;-73
2022/05/18 07:15:08;;;;;;;4.93;3.53;;;19.50;99.90;;;;;;5071537;28;20454;-74
2022/05/18 07:17:35;;;;;;;3.67;3.37;;;19.70;99.90;;;;;;5072199;28;20549;-73
2022/05/18 07:20:03;;;;;;;4.50;3.77;;;19.80;99.90;;;;;;5071679;28;20477;-73
2022/05/18 07:22:29;;;;;;;6.30;3.60;;;19.90;99.90;;;;;;5071857;28;20489;-72
2022/05/18 07:24:56;;;;;;;4.63;3.70;;;20.00;99.90;;;;;;5071712;28;20469;-74
2022/05/18 07:27:24;;;;;;;5.83;4.00;;;20.20;99.90;;;;;;5072055;28;20945;-74
2022/05/18 07:29:51;;;;;;;4.93;3.50;;;20.30;99.90;;;;;;5070974;28;20577;-74
2022/05/18 07:32:17;;;;;;;3.70;3.40;;;20.40;99.90;;;;;;5071411;28;20482;-74
2022/05/18 07:34:45;;;;;;;4.27;3.80;;;20.60;99.90;;;;;;5071462;28;20466;-73
2022/05/18 07:37:14;;;;;;;5.50;3.60;;;20.70;99.90;;;;;;5071345;28;20958;-74
2022/05/18 07:39:40;;;;;;;5.47;3.53;;;20.70;99.90;;;;;;5070993;28;20458;-74
2022/05/18 07:42:09;;;;;;;5.30;3.90;;;20.80;99.90;;;;;;5071419;28;20478;-74
2022/05/18 07:44:37;;;;;;;3.97;3.57;;;20.90;99.90;;;;;;5070893;28;20838;-74
2022/05/18 07:47:06;;;;;;;3.80;3.50;;;20.90;99.90;;;;;;5071362;28;20462;-74
2022/05/18 07:49:35;;;;;;;7.27;4.07;;;21.00;99.90;;;;;;5074125;28;20479;-74
2022/05/18 07:52:04;;;;;;;3.87;3.47;;;21.20;99.90;;;;;;5076405;28;20484;-74
2022/05/18 07:54:31;;;;;;;5.73;3.30;;;21.30;99.90;;;;;;5071574;28;20458;-74
2022/05/18 07:56:57;;;;;;;3.50;3.00;;;21.30;99.90;;;;;;5070935;28;20458;-74
2022/05/18 07:59:24;;;;;;;3.70;3.30;;;21.40;99.90;;;;;;5070387;28;20473;-73
2022/05/18 08:01:52;;;;;;;5.30;3.40;;;21.50;99.90;;;;;;5071164;28;20481;-74
2022/05/18 08:04:19;;;;;;;4.93;3.60;;;21.60;99.90;;;;;;5070892;28;20454;-74
2022/05/18 08:06:46;;;;;;;5.50;3.40;;;21.70;99.90;;;;;;5071209;28;20462;-74
2022/05/18 08:09:13;;;;;;;4.43;3.43;;;21.80;99.90;;;;;;5070043;28;20466;-74
2022/05/18 08:17:10;;;;;;;4.77;3.30;;;22.00;99.90;;;;;;5070499;28;20929;-74
2022/05/18 08:19:36;;;;;;;7.33;3.40;;;22.20;99.90;;;;;;5070436;28;20465;-74
2022/05/18 08:22:03;;;;;;;5.03;3.20;;;22.30;99.90;;;;;;5069840;28;20487;-74
2022/05/18 08:24:30;;;;;;;4.93;3.80;;;22.40;99.90;;;;;;5070455;28;20474;-74
2022/05/18 08:26:57;;;;;;;4.33;3.83;;;22.40;99.90;;;;;;5070321;28;20467;-74
2022/05/18 08:29:24;;;;;;;3.80;3.20;;;22.50;99.90;;;;;;5069452;28;20880;-74
2022/05/18 08:31:50;;;;;;;3.83;3.50;;;22.50;99.90;;;;;;5071006;28;20475;-74
2022/05/18 08:34:19;;;;;;;4.93;3.33;;;22.50;99.90;;;;;;5069728;28;20482;-74
2022/05/18 08:36:46;;;;;;;4.00;3.20;;;22.60;99.90;;;;;;5070411;28;20595;-74
2022/05/18 08:39:12;;;;;;;4.87;3.40;;;22.80;99.70;;;;;;5069633;28;20465;-74
2022/05/18 08:41:44;;;;;;;4.20;3.10;;;22.90;99.60;;;;;;5070357;28;20993;-74
2022/05/18 08:44:20;;;;;;;4.20;3.30;;;22.90;99.90;;;;;;5070337;28;20542;-74
2022/05/18 08:47:00;;;;;;;3.90;3.30;;;23.00;99.70;;;;;;5070020;28;20458;-74
2022/05/18 08:49:39;;;;;;;5.17;3.80;;;23.20;99.90;;;;;;5069896;28;20458;-74
2022/05/18 08:52:25;;;;;;;3.77;3.33;;;23.30;99.30;;;;;;5068919;28;20531;-74
2022/05/18 08:55:03;;;;;;;3.73;3.33;;;23.40;98.60;;;;;;5090068;28;20447;-74
2022/05/18 08:57:35;;;;;;;3.60;3.30;;;23.40;99.90;;;;;;5090028;28;20544;-74
2022/05/18 09:00:11;;;;;;;5.27;3.37;;;23.60;99.60;;;;;;5088847;28;21023;-74
2022/05/18 09:02:42;;;;;;;4.00;3.33;;;23.70;99.70;;;;;;5090225;28;20479;-74
2022/05/18 09:05:13;;;;;;;3.40;3.20;;;23.90;98.10;;;;;;5089782;28;21039;-75
2022/05/18 09:07:46;;;;;;;4.13;3.73;;;24.10;97.90;;;;;;5089706;28;20831;-74
2022/05/18 09:10:23;;;;;;;4.43;3.70;;;24.20;97.20;;;;;;5088880;28;20493;-74
2022/05/18 09:12:50;;;;;;;3.77;3.40;;;24.30;97.10;;;;;;5089863;28;20846;-74
2022/05/18 09:15:21;;;;;;;3.80;3.40;;;24.40;96.80;;;;;;5086114;28;20492;-75
2022/05/18 09:17:54;;;;;;;3.47;2.93;;;24.60;97.50;;;;;;5089685;28;20465;-75
2022/05/18 09:20:24;;;;;;;5.00;3.50;;;24.90;97.50;;;;;;5089242;28;20485;-75
2022/05/18 09:23:05;;;;;;;3.27;2.97;;;25.20;95.50;;;;;;5089394;28;20484;-75
2022/05/18 09:25:43;;;;;;;4.07;3.50;;;25.60;95.70;;;;;;5089533;28;20484;-74
2022/05/18 09:28:23;;;;;;;3.73;3.33;;;25.70;93.50;;;;;;5089161;28;20461;-74
2022/05/18 09:31:02;;;;;;;5.77;3.10;;;25.70;95.80;;;;;;5089392;28;20477;-74
2022/05/18 09:33:54;;;;;;;5.57;3.67;;;26.00;96.60;;;;;;5089728;28;20469;-74
2022/05/18 09:36:36;;;;;;;5.10;3.17;;;26.50;96.00;;;;;;5091937;28;20457;-74
2022/05/18 09:39:08;;;;;;;4.50;3.20;;;26.80;94.40;;;;;;5093320;28;20461;-74
2022/05/18 09:41:41;;;;;;;3.50;3.03;;;26.90;94.30;;;;;;5093524;28;21223;-74
2022/05/18 09:44:17;;;;;;;4.20;2.90;;;27.10;95.50;;;;;;5093402;28;20837;-74
2022/05/18 09:46:44;;;;;;;8.93;2.80;;;27.40;94.40;;;;;;5093388;28;20464;-73
2022/05/18 09:49:18;;;;;;;4.07;3.10;;;27.50;93.90;;;;;;5092784;28;20853;-74
2022/05/18 09:51:47;;;;;;;4.73;2.63;;;27.50;93.90;;;;;;5093285;28;20516;-74
2022/05/18 09:54:14;;;;;;;3.40;2.80;;;27.80;93.00;;;;;;5092940;28;20461;-74
2022/05/18 09:56:47;;;;;;;3.60;3.30;;;28.00;93.00;;;;;;5093549;28;20496;-74
2022/05/18 09:59:18;;;;;;;4.27;3.20;;;28.20;93.80;;;;;;5091850;28;20457;-74
2022/05/18 10:07:30;;;;;;;3.80;3.10;;;28.60;92.50;;;;;;5092806;28;20437;-74
2022/05/18 10:10:05;;;;;;;4.73;3.77;;;28.40;91.40;;;;;;5092399;28;20476;-75
2022/05/18 10:12:38;;;;;;;4.67;2.90;;;28.40;92.20;;;;;;5083654;28;20506;-75
2022/05/18 10:15:09;;;;;;;2.87;2.60;;;28.40;91.90;;;;;;5072704;28;20458;-75
2022/05/18 10:17:39;;;;;;;3.47;3.17;;;28.70;91.90;;;;;;5073199;28;20554;-75
2022/05/18 10:20:11;;;;;;;3.13;2.70;;;28.90;93.10;;;;;;5072417;28;20463;-75
2022/05/18 10:22:45;;;;;;;3.23;2.93;;;29.00;91.20;;;;;;5072880;28;20484;-75
2022/05/18 10:25:15;;;;;;;3.53;3.20;;;28.80;91.70;;;;;;5071486;28;20609;-74
2022/05/18 10:27:46;;;;;;;3.57;3.27;;;28.80;94.00;;;;;;5071288;28;20582;-74
2022/05/18 10:30:17;;;;;;;3.90;3.00;;;29.00;92.00;;;;;;5072244;28;20467;-74
2022/05/18 10:32:57;;;;;;;4.40;3.57;;;29.10;91.50;;;;;;5072696;28;20585;-74
2022/05/18 10:35:47;;;;;;;3.70;3.40;;;29.20;92.50;;;;;;5071966;28;20454;-74
2022/05/18 10:38:24;;;;;;;3.50;3.20;;;29.30;92.60;;;;;;5071868;28;20459;-74
2022/05/18 10:40:54;;;;;;;2.97;2.67;;;29.30;92.20;;;;;;5072926;28;20462;-71
2022/05/18 10:43:33;;;;;;;3.57;3.27;;;29.40;90.80;;;;;;5072369;28;20881;-71
2022/05/18 10:46:02;;;;;;;3.70;3.20;;;29.30;90.40;;;;;;5072278;28;20451;-73
2022/05/18 10:48:33;;;;;;;4.67;3.60;;;29.00;90.70;;;;;;5071484;28;20831;-71
2022/05/18 10:51:01;;;;;;;3.70;3.27;;;28.90;91.50;;;;;;5072072;28;20479;-71
2022/05/18 10:53:33;;;;;;;4.37;3.53;;;29.00;90.90;;;;;;5072494;28;20566;-70
2022/05/18 10:56:05;;;;;;;5.03;3.20;;;28.90;89.60;;;;;;5072115;28;20459;-71
2022/05/18 10:58:34;;;;;;;3.70;3.40;;;28.40;91.10;;;;;;5071812;28;20946;-74
2022/05/18 11:01:04;;;;;;;3.87;3.10;;;28.60;92.80;;;;;;5072124;28;20455;-74
2022/05/18 11:03:36;;;;;;;3.40;2.73;;;28.90;91.90;;;;;;5083660;28;20486;-74
2022/05/18 11:06:08;;;;;;;4.23;2.90;;;29.10;91.20;;;;;;5091770;28;20460;-77
2022/05/18 11:08:36;;;;;;;3.70;3.40;;;29.10;90.10;;;;;;5091522;28;20538;-74
2022/05/18 11:11:14;;;;;;;3.70;3.27;;;29.10;91.10;;;;;;5091800;28;20478;-73
2022/05/18 11:13:46;;;;;;;4.20;3.10;;;29.10;90.90;;;;;;5091616;28;20913;-74
2022/05/18 11:16:26;;;;;;;3.40;3.10;;;29.10;90.60;;;;;;5092060;28;20483;-74
2022/05/18 11:18:58;;;;;;;3.50;3.10;;;29.20;92.30;;;;;;5091526;28;20460;-75
2022/05/18 11:21:34;;;;;;;2.70;2.50;;;29.30;92.50;;;;;;5091612;28;20971;-75
2022/05/18 11:24:09;;;;;;;3.40;3.10;;;29.30;90.90;;;;;;5091974;28;20574;-75
2022/05/18 11:26:44;;;;;;;5.67;3.00;;;29.20;91.00;;;;;;5091609;28;20447;-75
2022/05/18 11:29:26;;;;;;;3.03;2.73;;;29.40;91.00;;;;;;5090913;28;20455;-78
2022/05/18 11:32:12;;;;;;;2.77;2.30;;;29.60;90.80;;;;;;5091635;28;20515;-77
2022/05/18 11:34:47;;;;;;;3.73;2.70;;;29.80;92.30;;;;;;5091293;28;20987;-74
2022/05/18 11:37:28;;;;;;;4.33;2.77;;;29.80;89.60;;;;;;5090823;28;20457;-73
2022/05/18 11:40:06;;;;;;;3.07;2.77;;;30.00;90.60;;;;;;5091097;28;21241;-74
2022/05/18 11:42:42;;;;;;;4.80;3.47;;;30.00;90.10;;;;;;5091219;28;20483;-73
2022/05/18 11:45:21;;;;;;;3.37;2.63;;;30.10;88.00;;;;;;5091271;28;20928;-73
2022/05/18 11:48:02;;;;;;;3.10;2.70;;;30.10;88.10;;;;;;5091521;28;20458;-75
2022/05/18 11:50:41;;;;;;;4.53;3.23;;;30.20;89.70;;;;;;5090650;28;20454;-76
2022/05/18 11:53:26;;;;;;;2.53;2.30;;;30.30;87.20;;;;;;5091103;28;20491;-74
2022/05/18 11:56:10;;;;;;;2.67;2.47;;;30.00;85.70;;;;;;5091166;28;20466;-73
2022/05/18 11:58:49;;;;;;;3.23;2.83;;;30.10;88.40;;;;;;5090290;28;20454;-73
2022/05/18 12:01:26;;;;;;;3.13;2.83;;;30.30;88.30;;;;;;5090711;28;20450;-73
2022/05/18 12:04:24;;;;;;;3.27;2.63;;;30.30;88.50;;;;;;5091451;28;20467;-74
2022/05/18 12:07:03;;;;;;;3.20;2.60;;;30.60;91.10;;;;;;5091188;28;20458;-73
2022/05/18 12:09:49;;;;;;;3.50;2.47;;;30.70;86.60;;;;;;5090363;28;21026;-75
2022/05/18 12:12:26;;;;;;;2.70;2.50;;;30.40;82.40;;;;;;5090218;28;20833;-71
2022/05/18 12:15:03;;;;;;;3.57;2.47;;;30.00;89.10;;;;;;5069916;28;21005;-72
2022/05/18 12:17:37;;;;;;;6.00;2.87;;;29.80;85.60;;;;;;5070671;28;21000;-73
2022/05/18 12:20:11;;;;;;;4.00;2.70;;;29.80;82.60;;;;;;5069369;28;20533;-75
2022/05/18 12:22:41;;;;;;;2.63;2.27;;;29.80;83.70;;;;;;5070593;28;20857;-71
2022/05/18 12:25:09;;;;;;;3.90;2.83;;;29.70;84.40;;;;;;5070135;28;20465;-72
2022/05/18 12:27:39;;;;;;;2.87;2.67;;;29.70;87.40;;;;;;5070306;28;21425;-75
2022/05/18 12:30:10;;;;;;;2.80;2.53;;;29.90;86.80;;;;;;5069684;28;20455;-74
2022/05/18 12:32:38;;;;;;;6.47;2.40;;;30.10;84.20;;;;;;5070203;28;20492;-74
2022/05/18 12:35:12;;;;;;;3.07;2.80;;;30.20;86.10;;;;;;5070056;28;20463;-75
2022/05/18 12:37:51;;;;;;;2.60;2.23;;;30.20;88.20;;;;;;5069862;28;20746;-75
2022/05/18 12:40:31;;;;;;;3.23;2.57;;;30.30;84.80;;;;;;5069655;28;20590;-73
2022/05/18 12:43:04;;;;;;;3.70;3.30;;;30.20;85.80;;;;;;5069681;28;20530;-74
2022/05/18 12:45:37;;;;;;;3.30;2.30;;;30.20;86.60;;;;;;5070146;28;20970;-75
2022/05/18 12:48:14;;;;;;;2.60;2.40;;;30.10;83.20;;;;;;5069329;28;20460;-73
2022/05/18 12:50:44;;;;;;;2.53;2.30;;;30.00;87.00;;;;;;5069423;28;20468;-71
2022/05/18 12:53:18;;;;;;;4.27;3.00;;;30.20;87.00;;;;;;5069780;28;20538;-74
2022/05/18 12:55:57;;;;;;;2.93;2.63;;;30.20;85.80;;;;;;5069954;28;20468;-74
2022/05/18 12:58:30;;;;;;;2.50;2.30;;;30.10;87.30;;;;;;5069462;28;20468;-74
2022/05/18 13:01:04;;;;;;;3.07;2.17;;;30.30;85.90;;;;;;5069368;28;20458;-72
2022/05/18 13:03:43;;;;;;;3.63;2.37;;;30.30;85.30;;;;;;5069127;28;20477;-77
2022/05/18 13:06:16;;;;;;;5.93;2.60;;;30.20;83.20;;;;;;5060963;28;20458;-74
2022/05/18 13:09:00;;;;;;;4.00;2.80;;;30.10;85.20;;;;;;5057992;28;20467;-73
2022/05/18 13:11:46;;;;;;;2.73;2.33;;;29.90;84.20;;;;;;5058071;28;20570;-72
2022/05/18 13:14:26;;;;;;;3.80;2.90;;;29.90;85.30;;;;;;5062157;28;20491;-71
2022/05/18 13:17:06;;;;;;;3.17;2.77;;;30.00;83.00;;;;;;5069424;28;20465;-72
2022/05/18 13:19:35;;;;;;;3.40;2.53;;;30.00;81.60;;;;;;5067645;28;20466;-71
2022/05/18 13:22:13;;;;;;;2.50;2.30;;;30.00;84.80;;;;;;5069825;28;20471;-71
2022/05/18 13:24:45;;;;;;;2.50;2.30;;;30.10;82.80;;;;;;5069937;28;20548;-71
2022/05/18 13:27:15;;;;;;;2.37;2.17;;;30.00;84.40;;;;;;5069658;28;20470;-74
2022/05/18 13:29:45;;;;;;;3.00;2.47;;;30.00;81.90;;;;;;5069742;28;20484;-74